Albion, Michigan
Current Conditions -  °F | °C
As of 3:14 AM on Sunday 21 Dec 2014 (Local Time) from KRMY Reporting Station
Overcast Overcast  
Wind Chill: 28°   Ceiling: 1900
Heat Index: 28°   Visibility: 7mi
Dew Point: 26°   Wind: 0mph
Humidity: 90%   Direction: NA
Pressure: 30.27"   Gusts: NA
Location:  42.25°N, 84.75°W
Report Text: KRMY 210814Z AUTO 00000KT 7SM OVC019 M02/M03 A3027 RMK AO2 T10201035
Loading
Personal Weather Stations






























Interactive Weather Map New forecast layout! Learn more

10-Day Weather Forecast

Advertisements
Track Severe Weather on mobile